createdAt,value
2022-08-26T00:00:54.506Z,52.17
2022-08-26T00:03:27.151Z,52.38
2022-08-26T00:05:57.833Z,52.11
2022-08-26T00:08:27.732Z,52.08
2022-08-26T00:10:57.538Z,52.40
2022-08-26T00:13:29.930Z,52.02
2022-08-26T00:15:59.829Z,52.24
2022-08-26T00:18:38.717Z,52.39
2022-08-26T00:21:12.040Z,51.97
2022-08-26T00:23:41.863Z,52.62
2022-08-26T00:26:11.810Z,52.06
2022-08-26T00:28:42.553Z,52.44
2022-08-26T00:31:12.776Z,52.63
2022-08-26T00:33:45.722Z,52.72
2022-08-26T00:36:20.083Z,52.71
2022-08-26T00:38:51.047Z,52.38
2022-08-26T00:41:22.633Z,52.31
2022-08-26T00:43:54.073Z,52.71
2022-08-26T00:46:28.898Z,52.69
2022-08-26T00:49:12.245Z,52.54
2022-08-26T00:51:49.009Z,52.93
2022-08-26T00:54:20.007Z,52.67
2022-08-26T00:56:55.494Z,52.60
2022-08-26T00:59:26.703Z,53.06
2022-08-26T01:01:59.359Z,52.93
2022-08-26T01:04:34.232Z,52.74
2022-08-26T01:07:05.486Z,53.15
2022-08-26T01:09:36.129Z,52.98
2022-08-26T01:12:07.577Z,53.16
2022-08-26T01:14:40.263Z,52.99
2022-08-26T01:17:11.420Z,52.90
2022-08-26T01:19:46.935Z,52.94
2022-08-26T01:22:20.206Z,53.15
2022-08-26T01:24:54.063Z,53.15
2022-08-26T01:27:24.859Z,52.86
2022-08-26T01:29:55.117Z,53.13
2022-08-26T01:32:26.066Z,53.45
2022-08-26T01:34:56.161Z,53.16
2022-08-26T01:37:32.623Z,53.10
2022-08-26T01:40:08.051Z,53.32
2022-08-26T01:42:38.352Z,53.64
2022-08-26T01:45:12.949Z,53.20
2022-08-26T01:47:44.548Z,53.26
2022-08-26T01:50:27.880Z,53.39
2022-08-26T01:53:01.811Z,53.46
2022-08-26T01:55:35.440Z,53.38
2022-08-26T01:58:09.820Z,53.54
2022-08-26T02:00:40.941Z,53.35
2022-08-26T02:03:22.267Z,53.45
2022-08-26T02:05:55.794Z,53.08
2022-08-26T02:08:32.143Z,53.58
2022-08-26T02:11:05.832Z,53.46
2022-08-26T02:13:40.888Z,53.79
2022-08-26T02:16:11.970Z,53.63
2022-08-26T02:18:44.844Z,53.68
2022-08-26T02:21:16.920Z,53.60
2022-08-26T02:23:47.612Z,54.04
2022-08-26T02:26:23.106Z,53.60
2022-08-26T02:29:04.563Z,53.47
2022-08-26T02:31:34.575Z,53.93
2022-08-26T02:34:11.333Z,54.03
2022-08-26T02:36:41.967Z,53.57
2022-08-26T02:39:15.047Z,53.95
2022-08-26T02:41:52.269Z,53.97
2022-08-26T02:44:22.415Z,53.98
2022-08-26T02:46:52.858Z,53.95
2022-08-26T02:49:24.578Z,53.97
2022-08-26T02:51:55.092Z,54.12
2022-08-26T02:54:25.394Z,54.47
2022-08-26T02:56:58.292Z,54.58
2022-08-26T02:59:29.298Z,53.96
2022-08-26T03:02:00.560Z,54.27
2022-08-26T03:04:31.193Z,54.51
2022-08-26T03:07:03.437Z,54.09
2022-08-26T03:09:33.312Z,54.16
2022-08-26T03:12:06.500Z,54.23
2022-08-26T03:14:37.514Z,54.30
2022-08-26T03:17:07.902Z,54.62
2022-08-26T03:19:39.980Z,54.39
2022-08-26T03:22:11.068Z,54.57
2022-08-26T03:24:40.891Z,54.01
2022-08-26T03:27:18.738Z,54.26
2022-08-26T03:30:01.034Z,54.52
2022-08-26T03:32:31.143Z,54.48
2022-08-26T03:35:00.968Z,54.49
2022-08-26T03:37:30.824Z,54.38
2022-08-26T03:40:01.182Z,54.23
2022-08-26T03:42:33.692Z,54.58
2022-08-26T03:45:03.733Z,54.53
2022-08-26T03:47:33.817Z,54.61
2022-08-26T03:50:04.844Z,54.46
2022-08-26T03:52:34.715Z,54.50
2022-08-26T03:55:04.611Z,54.61
2022-08-26T03:57:37.304Z,54.90
2022-08-26T04:00:12.032Z,55.04
2022-08-26T04:02:42.854Z,55.08
2022-08-26T04:05:13.691Z,54.60
2022-08-26T04:07:43.735Z,54.77
2022-08-26T04:10:14.546Z,55.00
2022-08-26T04:12:47.817Z,54.58
2022-08-26T04:15:18.981Z,54.72
2022-08-26T04:17:48.881Z,55.09
2022-08-26T04:20:18.739Z,55.03
2022-08-26T04:22:49.239Z,54.95
2022-08-26T04:25:20.662Z,55.10
2022-08-26T04:27:53.104Z,55.12
2022-08-26T04:30:23.190Z,55.10
2022-08-26T04:32:53.921Z,55.35
2022-08-26T04:35:25.999Z,55.01
2022-08-26T04:37:56.998Z,55.16
2022-08-26T04:40:27.770Z,55.08
2022-08-26T04:43:00.276Z,55.23
2022-08-26T04:45:30.145Z,55.36
2022-08-26T04:48:00.110Z,55.04
2022-08-26T04:50:30.000Z,55.35
2022-08-26T04:53:00.317Z,54.96
2022-08-26T04:55:39.657Z,55.16
2022-08-26T04:58:17.462Z,54.99
2022-08-26T05:00:48.033Z,54.96
2022-08-26T05:03:18.917Z,54.95
2022-08-26T05:05:51.045Z,54.84
2022-08-26T05:08:23.124Z,54.68
2022-08-26T05:10:56.480Z,54.92
2022-08-26T05:13:30.400Z,54.82
2022-08-26T05:16:01.247Z,54.81
2022-08-26T05:18:31.393Z,54.62
2022-08-26T05:21:01.209Z,54.64
2022-08-26T05:23:32.062Z,54.41
2022-08-26T05:26:02.769Z,54.59
2022-08-26T05:28:38.336Z,54.65
2022-08-26T05:31:17.758Z,54.23
2022-08-26T05:33:48.498Z,53.95
2022-08-26T05:36:22.074Z,54.28
2022-08-26T05:38:52.433Z,54.07
2022-08-26T05:41:25.019Z,54.19
2022-08-26T05:43:59.065Z,54.29
2022-08-26T05:46:29.865Z,54.04
2022-08-26T05:49:00.725Z,53.77
2022-08-26T05:51:30.969Z,54.23
2022-08-26T05:54:01.823Z,54.03
2022-08-26T05:56:33.610Z,53.90
2022-08-26T05:59:10.899Z,53.93
2022-08-26T06:01:45.863Z,53.73
2022-08-26T06:04:17.237Z,53.80
2022-08-26T06:06:50.292Z,53.98
2022-08-26T06:09:20.472Z,53.13
2022-08-26T06:11:51.410Z,53.50
2022-08-26T06:14:23.891Z,53.32
2022-08-26T06:16:53.813Z,53.28
2022-08-26T06:19:23.989Z,53.09
2022-08-26T06:21:55.084Z,53.36
2022-08-26T06:24:37.591Z,52.93
2022-08-26T06:27:11.380Z,53.16
2022-08-26T06:29:44.197Z,52.95
2022-08-26T06:32:14.342Z,52.87
2022-08-26T06:34:44.726Z,52.81
2022-08-26T06:37:14.581Z,52.67
2022-08-26T06:39:45.783Z,52.79
2022-08-26T06:42:15.620Z,52.50
2022-08-26T06:44:48.033Z,52.28
2022-08-26T06:47:17.855Z,52.35
2022-08-26T06:49:47.751Z,52.47
2022-08-26T06:52:22.516Z,52.29
2022-08-26T06:54:54.373Z,52.28
2022-08-26T06:57:24.219Z,52.34
2022-08-26T06:59:56.805Z,52.12
2022-08-26T07:02:28.484Z,51.37
2022-08-26T07:04:58.767Z,51.77
2022-08-26T07:07:29.103Z,51.38
2022-08-26T07:09:59.832Z,51.60
2022-08-26T07:12:29.972Z,51.80
2022-08-26T07:15:02.483Z,51.58
2022-08-26T07:17:32.690Z,51.68
2022-08-26T07:20:06.299Z,52.04
2022-08-26T07:22:37.146Z,51.21
2022-08-26T07:25:08.202Z,51.26
2022-08-26T07:27:39.634Z,51.84
2022-08-26T07:30:14.796Z,51.16
2022-08-26T07:32:44.875Z,50.93
2022-08-26T07:35:14.644Z,51.21
2022-08-26T07:37:45.653Z,51.15
2022-08-26T07:40:15.551Z,51.04
2022-08-26T07:42:46.398Z,50.58
2022-08-26T07:45:18.961Z,50.79
2022-08-26T07:47:48.784Z,50.78
2022-08-26T07:50:18.648Z,50.98
2022-08-26T07:52:48.548Z,50.95
2022-08-26T07:55:19.523Z,50.65
2022-08-26T07:57:51.111Z,50.72
2022-08-26T08:00:27.973Z,50.27
2022-08-26T08:02:57.968Z,50.12
2022-08-26T08:05:33.726Z,50.12
2022-08-26T08:08:27.415Z,49.74
2022-08-26T08:10:57.008Z,49.12
2022-08-26T08:13:27.473Z,48.68
2022-08-26T08:16:00.714Z,48.90
2022-08-26T08:18:31.241Z,48.33
2022-08-26T08:21:21.103Z,47.75
2022-08-26T08:23:52.679Z,47.83
2022-08-26T08:26:23.138Z,47.71
2022-08-26T08:28:53.886Z,47.01
2022-08-26T08:31:52.499Z,47.77
2022-08-26T08:34:19.614Z,46.99
2022-08-26T08:36:53.314Z,46.49
2022-08-26T08:39:23.858Z,47.01
2022-08-26T08:42:24.627Z,46.29
2022-08-26T08:44:58.316Z,45.41
2022-08-26T08:47:36.627Z,45.62
2022-08-26T08:50:14.343Z,44.75
2022-08-26T08:52:48.645Z,45.35
2022-08-26T08:55:19.306Z,44.79
2022-08-26T08:58:02.809Z,44.63
2022-08-26T09:00:52.486Z,44.13
2022-08-26T09:03:38.581Z,44.76
2022-08-26T09:06:17.504Z,44.00
2022-08-26T09:08:50.615Z,44.20
2022-08-26T09:11:22.422Z,43.51
2022-08-26T09:13:55.231Z,44.17
2022-08-26T09:16:31.305Z,44.41
2022-08-26T09:19:19.016Z,43.54
2022-08-26T09:21:57.142Z,43.09
2022-08-26T09:24:28.415Z,42.60
2022-08-26T09:26:59.278Z,42.81
2022-08-26T09:29:30.913Z,42.13
2022-08-26T09:32:20.571Z,41.81
2022-08-26T09:35:02.900Z,41.45
2022-08-26T09:37:39.911Z,41.47
2022-08-26T09:40:30.561Z,41.82
2022-08-26T09:43:22.412Z,42.23
2022-08-26T09:45:59.322Z,41.18
2022-08-26T09:48:35.528Z,42.38
2022-08-26T09:51:26.870Z,42.06
2022-08-26T09:53:59.338Z,42.27
2022-08-26T09:56:32.186Z,42.16
2022-08-26T09:59:03.888Z,41.36
2022-08-26T10:01:40.391Z,40.77
2022-08-26T10:04:14.708Z,40.89
2022-08-26T10:06:59.186Z,40.92
2022-08-26T10:09:30.052Z,40.76
2022-08-26T10:12:04.593Z,40.61
2022-08-26T10:14:39.938Z,41.41
2022-08-26T10:17:17.173Z,40.76
2022-08-26T10:19:57.237Z,40.13
2022-08-26T10:22:38.176Z,40.44
2022-08-26T10:25:12.687Z,39.16
2022-08-26T10:27:52.737Z,38.68
2022-08-26T10:30:25.176Z,38.30
2022-08-26T10:32:59.421Z,38.28
2022-08-26T10:35:30.523Z,38.29
2022-08-26T10:38:07.349Z,37.56
2022-08-26T10:40:49.089Z,36.97
2022-08-26T10:43:25.544Z,36.18
2022-08-26T10:45:57.436Z,36.04
2022-08-26T10:48:35.775Z,34.84
2022-08-26T10:51:08.595Z,35.40
2022-08-26T10:53:51.430Z,36.79
2022-08-26T10:56:43.030Z,37.75
2022-08-26T10:59:23.014Z,38.19
2022-08-26T11:01:59.165Z,39.29
2022-08-26T11:04:53.465Z,39.57
2022-08-26T11:07:42.645Z,39.05
2022-08-26T11:11:06.075Z,39.53
2022-08-26T11:14:04.642Z,41.09
2022-08-26T11:16:36.589Z,40.42
2022-08-26T11:19:15.329Z,40.97
2022-08-26T11:21:51.020Z,41.77
2022-08-26T11:24:42.687Z,42.10
2022-08-26T11:28:08.434Z,42.70
2022-08-26T11:30:58.077Z,42.74
2022-08-26T11:34:02.065Z,42.39
2022-08-26T11:37:00.948Z,42.59
2022-08-26T11:39:36.730Z,42.58
2022-08-26T11:42:22.734Z,42.94
2022-08-26T11:44:53.286Z,43.16
2022-08-26T11:47:32.506Z,43.15
2022-08-26T11:50:20.440Z,43.44
2022-08-26T11:53:02.348Z,43.97
2022-08-26T11:55:34.886Z,44.39
2022-08-26T11:58:07.739Z,44.06
2022-08-26T12:00:53.018Z,44.11
2022-08-26T12:03:29.251Z,43.70
2022-08-26T12:05:59.258Z,44.29
2022-08-26T12:08:32.203Z,44.90
2022-08-26T12:11:08.689Z,44.95
2022-08-26T12:13:39.798Z,45.08
2022-08-26T12:16:10.194Z,44.82
2022-08-26T12:18:44.874Z,44.33
2022-08-26T12:21:17.471Z,45.07
2022-08-26T12:23:50.165Z,45.37
2022-08-26T12:26:27.251Z,45.53
2022-08-26T12:29:00.947Z,41.70
2022-08-26T12:31:33.994Z,41.25
2022-08-26T12:34:13.098Z,40.81
2022-08-26T12:36:50.393Z,40.70
2022-08-26T12:39:29.426Z,40.29
2022-08-26T12:42:00.979Z,40.81
2022-08-26T12:44:53.106Z,40.55
2022-08-26T12:47:35.216Z,40.27
2022-08-26T12:50:23.699Z,41.72
2022-08-26T12:53:01.146Z,42.94
2022-08-26T12:55:40.838Z,43.67
2022-08-26T12:58:26.281Z,44.50
2022-08-26T13:00:57.994Z,45.45
2022-08-26T13:03:46.126Z,46.18
2022-08-26T13:06:31.236Z,47.61
2022-08-26T13:09:05.000Z,48.47
2022-08-26T13:11:36.841Z,48.70
2022-08-26T13:14:09.755Z,49.57
2022-08-26T13:16:42.014Z,49.79
2022-08-26T13:19:14.389Z,49.22
2022-08-26T13:21:49.705Z,49.55
2022-08-26T13:24:23.413Z,50.27
2022-08-26T13:26:53.419Z,50.07
2022-08-26T13:29:23.409Z,49.96
2022-08-26T13:31:54.764Z,49.98
2022-08-26T13:34:26.665Z,50.15
2022-08-26T13:36:59.939Z,50.01
2022-08-26T13:39:30.446Z,50.46
2022-08-26T13:42:00.525Z,50.41
2022-08-26T13:44:30.477Z,50.74
2022-08-26T13:47:00.310Z,51.45
2022-08-26T13:49:30.363Z,51.27
2022-08-26T13:52:03.813Z,51.42
2022-08-26T13:54:33.692Z,52.05
2022-08-26T13:57:03.518Z,51.99
2022-08-26T13:59:33.382Z,51.97
2022-08-26T14:02:04.005Z,51.97
2022-08-26T14:04:33.981Z,51.38
2022-08-26T14:07:06.769Z,51.39
2022-08-26T14:09:38.514Z,50.99
2022-08-26T14:12:09.023Z,51.27
2022-08-26T14:14:39.100Z,51.14
2022-08-26T14:17:09.839Z,51.96
2022-08-26T14:19:40.486Z,52.20
2022-08-26T14:22:12.972Z,51.68
2022-08-26T14:24:42.897Z,52.23
2022-08-26T14:27:12.863Z,52.05
2022-08-26T14:29:43.295Z,51.90
2022-08-26T14:32:22.023Z,51.71
2022-08-26T14:34:52.807Z,50.97
2022-08-26T14:37:25.387Z,51.05
2022-08-26T14:39:55.315Z,51.19
2022-08-26T14:42:31.447Z,51.98
2022-08-26T14:45:04.730Z,52.03
2022-08-26T14:47:34.604Z,52.14
2022-08-26T14:50:04.633Z,51.68
2022-08-26T14:52:57.104Z,52.24
2022-08-26T14:55:24.384Z,51.27
2022-08-26T14:57:54.270Z,51.98
2022-08-26T15:00:24.225Z,51.82
2022-08-26T15:02:54.229Z,51.60
2022-08-26T15:05:24.196Z,51.31
2022-08-26T15:07:56.717Z,51.96
2022-08-26T15:10:27.061Z,51.10
2022-08-26T15:12:56.953Z,51.23
2022-08-26T15:15:27.435Z,50.78
2022-08-26T15:17:58.430Z,50.79
2022-08-26T15:20:28.374Z,51.01
2022-08-26T15:23:06.079Z,50.88
2022-08-26T15:25:36.393Z,50.79
2022-08-26T15:28:09.805Z,51.07
2022-08-26T15:30:39.841Z,50.69
2022-08-26T15:33:15.031Z,50.69
2022-08-26T15:35:45.470Z,50.97
2022-08-26T15:38:18.200Z,51.17
2022-08-26T15:40:48.127Z,51.42
2022-08-26T15:43:28.829Z,51.59
2022-08-26T15:45:59.992Z,50.67
2022-08-26T15:48:30.613Z,50.44
2022-08-26T15:51:03.095Z,51.41
2022-08-26T15:53:37.699Z,51.58
2022-08-26T15:56:07.801Z,52.34
2022-08-26T15:58:38.104Z,52.44
2022-08-26T16:01:08.227Z,52.80
2022-08-26T16:03:38.348Z,52.64
2022-08-26T16:06:08.837Z,52.78
2022-08-26T16:08:42.244Z,52.48
2022-08-26T16:11:12.343Z,52.31
2022-08-26T16:13:42.379Z,52.43
2022-08-26T16:16:27.107Z,52.74
2022-08-26T16:18:57.213Z,52.91
2022-08-26T16:21:29.943Z,53.01
2022-08-26T16:24:03.449Z,53.35
2022-08-26T16:26:36.999Z,52.76
2022-08-26T16:29:10.584Z,52.56
2022-08-26T16:31:41.016Z,52.95
2022-08-26T16:34:11.657Z,53.05
2022-08-26T16:36:42.519Z,52.98
2022-08-26T16:39:15.611Z,53.75
2022-08-26T16:41:45.549Z,54.08
2022-08-26T16:44:15.487Z,53.66
2022-08-26T16:46:45.740Z,53.47
2022-08-26T16:49:15.768Z,53.85
2022-08-26T16:51:45.662Z,54.03
2022-08-26T16:54:18.187Z,54.17
2022-08-26T16:56:48.492Z,53.92
2022-08-26T16:59:18.644Z,54.24
2022-08-26T17:01:48.950Z,53.91
2022-08-26T17:04:19.810Z,54.28
2022-08-26T17:06:49.814Z,54.37
2022-08-26T17:09:22.912Z,54.03
2022-08-26T17:11:53.050Z,53.87
2022-08-26T17:14:23.052Z,54.21
2022-08-26T17:16:53.733Z,54.32
2022-08-26T17:19:24.410Z,53.46
2022-08-26T17:21:54.524Z,53.97
2022-08-26T17:24:27.207Z,54.03
2022-08-26T17:26:57.085Z,53.57
2022-08-26T17:29:26.888Z,53.62
2022-08-26T17:31:56.807Z,53.85
2022-08-26T17:34:26.761Z,53.77
2022-08-26T17:36:56.731Z,53.84
2022-08-26T17:39:29.216Z,53.94
2022-08-26T17:41:59.163Z,53.93
2022-08-26T17:44:29.620Z,54.06
2022-08-26T17:46:59.491Z,54.31
2022-08-26T17:49:29.551Z,54.12
2022-08-26T17:52:01.418Z,54.71
2022-08-26T17:54:33.942Z,54.56
2022-08-26T17:57:03.940Z,54.28
2022-08-26T17:59:40.984Z,54.32
2022-08-26T18:02:11.013Z,54.30
2022-08-26T18:04:40.853Z,54.35
2022-08-26T18:07:10.713Z,54.33
2022-08-26T18:09:44.455Z,54.77
2022-08-26T18:12:15.660Z,54.56
2022-08-26T18:14:45.523Z,54.86
2022-08-26T18:17:17.533Z,54.72
2022-08-26T18:19:49.404Z,54.68
2022-08-26T18:22:20.571Z,54.59
2022-08-26T18:24:58.953Z,54.77
2022-08-26T18:27:29.538Z,54.27
2022-08-26T18:30:00.095Z,54.17
2022-08-26T18:32:30.165Z,54.70
2022-08-26T18:35:00.053Z,54.27
2022-08-26T18:37:31.651Z,54.40
2022-08-26T18:40:04.791Z,54.71
2022-08-26T18:42:34.817Z,54.78
2022-08-26T18:45:05.083Z,54.53
2022-08-26T18:47:35.451Z,54.59
2022-08-26T18:50:06.150Z,54.57
2022-08-26T18:52:36.624Z,54.89
2022-08-26T18:55:10.298Z,54.85
2022-08-26T18:57:40.196Z,54.51
2022-08-26T19:00:11.896Z,54.89
2022-08-26T19:02:47.041Z,54.89
2022-08-26T19:05:22.028Z,54.58
2022-08-26T19:07:51.940Z,55.12
2022-08-26T19:10:24.864Z,55.09
2022-08-26T19:12:57.405Z,54.89
2022-08-26T19:15:30.028Z,55.08
2022-08-26T19:18:00.206Z,55.01
2022-08-26T19:20:30.026Z,55.06
2022-08-26T19:23:10.737Z,54.88
2022-08-26T19:25:55.109Z,54.62
2022-08-26T19:28:24.989Z,54.83
2022-08-26T19:30:55.182Z,55.14
2022-08-26T19:33:25.036Z,54.87
2022-08-26T19:35:55.582Z,54.61
2022-08-26T19:38:25.493Z,54.73
2022-08-26T19:41:00.253Z,55.00
2022-08-26T19:43:30.112Z,55.12
2022-08-26T19:46:02.243Z,55.05
2022-08-26T19:48:32.101Z,55.43
2022-08-26T19:51:01.959Z,55.35
2022-08-26T19:53:31.876Z,55.32
2022-08-26T19:56:04.344Z,55.30
2022-08-26T19:58:34.869Z,54.94
2022-08-26T20:01:04.846Z,55.51
2022-08-26T20:03:35.288Z,55.71
2022-08-26T20:06:05.824Z,55.25
2022-08-26T20:08:36.276Z,55.78
2022-08-26T20:11:12.882Z,55.20
2022-08-26T20:13:43.014Z,55.36
2022-08-26T20:16:13.110Z,55.33
2022-08-26T20:18:56.248Z,55.54
2022-08-26T20:21:29.493Z,55.02
2022-08-26T20:24:02.152Z,55.59
2022-08-26T20:26:37.396Z,55.67
2022-08-26T20:29:08.037Z,55.28
2022-08-26T20:31:38.749Z,55.28
2022-08-26T20:34:09.624Z,55.38
2022-08-26T20:36:42.231Z,54.84
2022-08-26T20:39:13.376Z,55.16
2022-08-26T20:41:46.318Z,55.22
2022-08-26T20:44:17.727Z,55.26
2022-08-26T20:46:48.085Z,55.31
2022-08-26T20:49:18.779Z,55.68
2022-08-26T20:51:51.774Z,55.35
2022-08-26T20:54:27.532Z,55.50
2022-08-26T20:57:01.521Z,55.34
2022-08-26T20:59:31.550Z,55.67
2022-08-26T21:02:01.476Z,55.83
2022-08-26T21:04:31.467Z,56.02
2022-08-26T21:07:01.403Z,56.00
2022-08-26T21:09:31.853Z,55.89
2022-08-26T21:12:04.689Z,55.83
2022-08-26T21:14:34.692Z,55.83
2022-08-26T21:17:04.575Z,55.76
2022-08-26T21:19:34.467Z,55.93
2022-08-26T21:22:05.043Z,55.76
2022-08-26T21:24:35.344Z,55.62
2022-08-26T21:27:08.099Z,55.98
2022-08-26T21:29:42.099Z,55.65
2022-08-26T21:32:12.436Z,56.04
2022-08-26T21:34:45.793Z,56.24
2022-08-26T21:37:16.898Z,56.08
2022-08-26T21:39:47.257Z,56.33
2022-08-26T21:42:19.735Z,56.02
2022-08-26T21:44:52.823Z,56.20
2022-08-26T21:47:24.494Z,55.93
2022-08-26T21:49:55.090Z,56.02
2022-08-26T21:52:25.033Z,55.92
2022-08-26T21:54:59.409Z,55.88
2022-08-26T21:57:32.032Z,56.07
2022-08-26T22:00:04.490Z,55.86
2022-08-26T22:02:36.834Z,56.05
2022-08-26T22:05:07.406Z,56.09
2022-08-26T22:07:37.340Z,56.29
2022-08-26T22:10:08.200Z,55.81
2022-08-26T22:12:40.779Z,55.96
2022-08-26T22:15:12.298Z,55.94
2022-08-26T22:17:42.508Z,55.46
2022-08-26T22:20:16.621Z,55.62
2022-08-26T22:22:46.787Z,56.03
2022-08-26T22:25:17.012Z,56.18
2022-08-26T22:27:49.457Z,56.18
2022-08-26T22:30:19.978Z,55.97
2022-08-26T22:32:50.024Z,56.26
2022-08-26T22:35:29.185Z,55.96
2022-08-26T22:37:59.858Z,56.23
2022-08-26T22:40:29.914Z,56.06
2022-08-26T22:43:02.503Z,56.28
2022-08-26T22:45:32.807Z,56.36
2022-08-26T22:48:05.224Z,56.22
2022-08-26T22:50:35.506Z,56.66
2022-08-26T22:53:05.693Z,56.41
2022-08-26T22:55:35.663Z,56.65
2022-08-26T22:58:09.467Z,56.33
2022-08-26T23:00:40.308Z,56.30
2022-08-26T23:03:10.562Z,56.43
2022-08-26T23:05:41.600Z,56.16
2022-08-26T23:08:12.125Z,56.42
2022-08-26T23:10:43.689Z,56.51
2022-08-26T23:13:17.472Z,55.78
2022-08-26T23:15:48.351Z,56.38
2022-08-26T23:18:18.812Z,56.51
2022-08-26T23:20:48.713Z,56.37
2022-08-26T23:23:18.626Z,56.19
2022-08-26T23:25:48.490Z,56.33
2022-08-26T23:28:21.157Z,56.42
2022-08-26T23:30:51.417Z,56.55
2022-08-26T23:33:21.363Z,56.50
2022-08-26T23:35:48.666Z,56.53
2022-08-26T23:38:19.593Z,56.72
2022-08-26T23:40:50.003Z,56.49
2022-08-26T23:43:22.659Z,56.52
2022-08-26T23:45:52.634Z,56.69
2022-08-26T23:48:22.595Z,56.41
2022-08-26T23:51:04.953Z,56.61
2022-08-26T23:53:34.913Z,56.47
2022-08-26T23:56:04.969Z,56.36
2022-08-26T23:58:37.441Z,56.68
